createdAt,value
2022-12-08T00:04:55.982Z,0.50
2022-12-08T00:10:47.188Z,0.52
2022-12-08T00:16:02.348Z,0.50
2022-12-08T00:21:24.161Z,0.40
2022-12-08T00:26:46.126Z,0.40
2022-12-08T00:32:07.859Z,0.38
2022-12-08T00:37:29.695Z,0.50
2022-12-08T00:42:51.349Z,0.50
2022-12-08T00:48:13.018Z,0.38
2022-12-08T00:53:34.701Z,0.70
2022-12-08T00:58:56.471Z,0.45
2022-12-08T01:04:19.645Z,0.40
2022-12-08T01:09:41.329Z,0.30
2022-12-08T01:15:03.147Z,0.60
2022-12-08T01:20:24.975Z,0.38
2022-12-08T01:25:46.794Z,0.40
2022-12-08T01:31:19.716Z,0.40
2022-12-08T01:36:42.382Z,0.50
2022-12-08T01:42:04.188Z,0.30
2022-12-08T01:47:30.381Z,0.40
2022-12-08T01:53:06.074Z,0.40
2022-12-08T01:58:34.751Z,0.40
2022-12-08T02:04:02.273Z,0.30
2022-12-08T02:09:24.696Z,0.32
2022-12-08T02:14:46.403Z,0.25
2022-12-08T02:20:53.539Z,0.20
2022-12-08T02:26:33.638Z,0.70
2022-12-08T02:32:22.870Z,0.30
2022-12-08T02:37:55.758Z,0.40
2022-12-08T02:43:26.180Z,0.52
2022-12-08T02:48:48.581Z,0.50
2022-12-08T02:54:10.654Z,0.50
2022-12-08T03:00:06.063Z,0.50
2022-12-08T03:06:05.795Z,0.32
2022-12-08T03:11:40.240Z,0.32
2022-12-08T03:17:03.009Z,0.30
2022-12-08T03:22:27.383Z,0.47
2022-12-08T03:27:50.891Z,0.47
2022-12-08T03:33:22.107Z,0.50
2022-12-08T03:38:46.269Z,0.50
2022-12-08T03:44:07.949Z,0.50
2022-12-08T03:49:29.620Z,0.50
2022-12-08T03:54:51.336Z,0.50
2022-12-08T04:00:15.949Z,0.40
2022-12-08T04:05:37.646Z,0.50
2022-12-08T04:10:59.313Z,0.35
2022-12-08T04:16:24.076Z,0.32
2022-12-08T04:21:46.580Z,0.43
2022-12-08T04:27:08.309Z,0.40
2022-12-08T04:32:29.976Z,0.30
2022-12-08T04:37:52.153Z,0.30
2022-12-08T04:43:13.832Z,0.47
2022-12-08T04:48:37.798Z,0.50
2022-12-08T04:53:59.465Z,0.20
2022-12-08T04:59:21.093Z,0.40
2022-12-08T05:04:42.782Z,0.40
2022-12-08T05:10:05.387Z,0.40
2022-12-08T05:15:27.426Z,0.50
2022-12-08T05:20:49.110Z,0.40
2022-12-08T05:26:10.752Z,0.40
2022-12-08T05:31:32.563Z,0.30
2022-12-08T05:36:54.632Z,0.40
2022-12-08T05:42:20.466Z,0.25
2022-12-08T05:47:45.465Z,0.30
2022-12-08T05:53:07.120Z,0.30
2022-12-08T05:58:28.811Z,0.30
2022-12-08T06:03:51.298Z,0.30
2022-12-08T06:09:13.240Z,0.30
2022-12-08T06:14:34.901Z,0.38
2022-12-08T06:19:56.633Z,0.20
2022-12-08T06:25:18.366Z,0.20
2022-12-08T06:30:40.019Z,0.20
2022-12-08T06:36:01.731Z,0.30
2022-12-08T06:41:24.321Z,0.30
2022-12-08T06:46:46.002Z,0.28
2022-12-08T06:52:07.724Z,0.30
2022-12-08T06:57:29.467Z,0.40
2022-12-08T07:02:51.428Z,0.30
2022-12-08T07:08:13.236Z,0.68
2022-12-08T07:13:34.972Z,0.50
2022-12-08T07:18:56.706Z,0.40
2022-12-08T07:24:18.756Z,0.43
2022-12-08T07:29:40.525Z,0.50
2022-12-08T07:35:02.233Z,0.70
2022-12-08T07:40:24.092Z,0.73
2022-12-08T07:45:46.042Z,0.50
2022-12-08T07:51:07.790Z,0.70
2022-12-08T07:56:29.508Z,0.50
2022-12-08T08:02:13.090Z,0.40
2022-12-08T08:07:33.413Z,0.52
2022-12-08T08:12:55.116Z,0.73
2022-12-08T08:18:16.980Z,0.63
2022-12-08T08:23:38.694Z,0.50
2022-12-08T08:29:00.439Z,0.50
2022-12-08T08:34:22.152Z,0.82
2022-12-08T08:39:43.974Z,0.60
2022-12-08T08:45:06.093Z,0.40
2022-12-08T08:50:32.860Z,0.80
2022-12-08T08:55:57.648Z,0.60
2022-12-08T09:01:24.308Z,0.93
2022-12-08T09:06:46.305Z,1.30
2022-12-08T09:12:08.542Z,1.25
2022-12-08T09:17:30.396Z,1.40
2022-12-08T09:22:52.143Z,1.23
2022-12-08T09:28:14.759Z,2.05
2022-12-08T09:33:36.498Z,1.00
2022-12-08T09:38:58.527Z,1.05
2022-12-08T09:44:42.187Z,1.55
2022-12-08T09:50:11.820Z,1.02
2022-12-08T09:55:45.514Z,1.08
2022-12-08T10:01:10.974Z,1.13
2022-12-08T10:06:46.732Z,1.15
2022-12-08T10:12:21.400Z,1.27
2022-12-08T10:17:49.704Z,1.38
2022-12-08T10:23:39.075Z,1.10
2022-12-08T10:29:02.994Z,0.95
2022-12-08T10:34:25.222Z,0.90
2022-12-08T10:39:47.068Z,0.88
2022-12-08T10:45:08.758Z,0.93
2022-12-08T10:50:35.712Z,0.75
2022-12-08T10:56:03.309Z,1.00
2022-12-08T11:01:28.239Z,0.90
2022-12-08T11:06:51.372Z,0.80
2022-12-08T11:12:17.882Z,1.00
2022-12-08T11:17:39.710Z,0.93
2022-12-08T11:23:01.464Z,1.00
2022-12-08T11:28:25.066Z,1.05
2022-12-08T11:33:47.629Z,1.10
2022-12-08T11:39:12.676Z,0.90
2022-12-08T11:44:57.882Z,1.23
2022-12-08T11:50:30.006Z,1.10
2022-12-08T11:55:58.670Z,1.17
2022-12-08T12:01:23.558Z,1.05
2022-12-08T12:07:12.668Z,1.10
2022-12-08T12:12:39.424Z,0.98
2022-12-08T12:18:41.021Z,1.20
2022-12-08T12:24:20.865Z,0.93
2022-12-08T12:29:55.524Z,1.00
2022-12-08T12:35:34.722Z,1.00
2022-12-08T12:41:03.048Z,1.20
2022-12-08T12:46:27.328Z,1.10
2022-12-08T12:51:54.792Z,0.90
2022-12-08T12:57:22.651Z,0.80
2022-12-08T13:02:44.460Z,0.88
2022-12-08T13:08:24.577Z,1.15
2022-12-08T13:13:56.916Z,0.88
2022-12-08T13:19:18.657Z,0.80
2022-12-08T13:24:40.344Z,0.80
2022-12-08T13:30:39.319Z,1.25
2022-12-08T13:36:10.880Z,0.98
2022-12-08T13:41:41.817Z,0.90
2022-12-08T13:59:30.494Z,1.10
2022-12-08T14:10:34.816Z,0.93
2022-12-08T14:15:56.632Z,0.80
2022-12-08T14:21:21.092Z,0.90
2022-12-08T14:26:47.655Z,0.70
2022-12-08T14:32:26.249Z,0.80
2022-12-08T14:37:50.452Z,0.60
2022-12-08T14:43:14.961Z,0.40
2022-12-08T14:48:36.639Z,0.70
2022-12-08T14:54:09.584Z,0.45
2022-12-08T14:59:35.859Z,0.30
2022-12-08T15:05:04.901Z,0.50
2022-12-08T15:10:29.676Z,0.50
2022-12-08T15:15:56.530Z,0.60
2022-12-08T15:21:18.341Z,0.45
2022-12-08T15:26:48.382Z,0.40
2022-12-08T15:32:11.628Z,0.57
2022-12-08T15:37:33.980Z,0.57
2022-12-08T15:42:55.758Z,0.57
2022-12-08T15:48:22.874Z,0.40
2022-12-08T15:53:44.733Z,0.70
2022-12-08T15:59:06.432Z,0.50
2022-12-08T16:05:17.893Z,0.30
2022-12-08T16:10:22.655Z,0.38
2022-12-08T16:15:55.080Z,0.50
2022-12-08T16:21:53.442Z,0.40
2022-12-08T16:27:58.738Z,0.38
2022-12-08T16:32:44.366Z,0.50
2022-12-08T16:38:06.238Z,0.50
2022-12-08T16:43:27.872Z,0.40
2022-12-08T16:48:50.539Z,0.70
2022-12-08T16:54:12.341Z,0.70
2022-12-08T16:59:34.137Z,0.88
2022-12-08T17:04:55.872Z,0.93
2022-12-08T17:10:20.773Z,1.25
2022-12-08T17:15:42.500Z,0.70
2022-12-08T17:21:10.452Z,0.68
2022-12-08T17:26:32.228Z,0.70
2022-12-08T17:31:54.231Z,0.70
2022-12-08T17:37:17.171Z,0.80
2022-12-08T17:42:39.274Z,1.13
2022-12-08T17:48:00.960Z,0.70
2022-12-08T17:53:23.293Z,0.90
2022-12-08T17:58:47.577Z,1.80
2022-12-08T18:04:13.225Z,2.42
2022-12-08T18:09:34.968Z,2.42
2022-12-08T18:14:56.887Z,2.13
2022-12-08T18:20:18.681Z,2.05
2022-12-08T18:25:40.422Z,2.20
2022-12-08T18:31:02.170Z,1.75
2022-12-08T18:36:25.805Z,1.60
2022-12-08T18:41:47.485Z,2.20
2022-12-08T18:47:09.208Z,1.63
2022-12-08T18:52:32.235Z,1.92
2022-12-08T18:57:54.501Z,1.52
2022-12-08T19:03:16.176Z,1.10
2022-12-08T19:08:38.061Z,1.60
2022-12-08T19:13:59.884Z,1.60
2022-12-08T19:19:21.775Z,1.33
2022-12-08T19:24:44.124Z,1.00
2022-12-08T19:30:06.789Z,1.13
2022-12-08T19:35:28.666Z,0.95
2022-12-08T19:41:08.561Z,0.55
2022-12-08T19:46:32.639Z,0.90
2022-12-08T19:51:56.357Z,1.17
2022-12-08T19:57:18.089Z,0.80
2022-12-08T20:02:39.886Z,1.10
2022-12-08T20:08:01.762Z,1.15
2022-12-08T20:13:41.580Z,0.80
2022-12-08T20:19:03.722Z,1.17
2022-12-08T20:24:25.417Z,1.30
2022-12-08T20:29:47.083Z,1.45
2022-12-08T20:35:09.317Z,0.95
2022-12-08T20:40:31.202Z,1.48
2022-12-08T20:45:52.923Z,1.35
2022-12-08T20:51:17.110Z,1.30
2022-12-08T20:56:44.772Z,1.38
2022-12-08T21:02:13.452Z,1.40
2022-12-08T21:07:35.479Z,0.93
2022-12-08T21:12:57.270Z,1.15
2022-12-08T21:18:19.994Z,0.90
2022-12-08T21:23:42.799Z,1.00
2022-12-08T21:29:05.153Z,1.10
2022-12-08T21:34:31.953Z,1.40
2022-12-08T21:39:53.781Z,1.60
2022-12-08T21:45:18.130Z,1.15
2022-12-08T21:50:40.034Z,1.85
2022-12-08T21:56:01.812Z,2.00
2022-12-08T22:01:23.616Z,2.17
2022-12-08T22:06:45.972Z,2.20
2022-12-08T22:18:31.352Z,2.92
2022-12-08T22:23:53.099Z,2.45
2022-12-08T22:29:14.867Z,2.30
2022-12-08T22:34:36.761Z,1.70
2022-12-08T22:39:58.587Z,1.77
2022-12-08T22:45:20.217Z,1.48
2022-12-08T22:50:42.399Z,1.95
2022-12-08T22:56:05.527Z,1.23
2022-12-08T23:01:30.203Z,1.75
2022-12-08T23:06:52.093Z,1.40
2022-12-08T23:12:14.055Z,1.10
2022-12-08T23:17:36.176Z,1.00
2022-12-08T23:22:58.312Z,1.25
2022-12-08T23:28:20.182Z,1.05
2022-12-08T23:33:42.174Z,1.45
2022-12-08T23:39:05.093Z,1.05
2022-12-08T23:44:26.943Z,0.88
2022-12-08T23:49:48.836Z,0.60
2022-12-08T23:55:11.294Z,1.10
